createdAt,value
2023-05-05T00:01:50.162Z,13.83
2023-05-05T00:06:55.871Z,13.77
2023-05-05T00:11:58.981Z,13.85
2023-05-05T00:17:00.928Z,13.80
2023-05-05T00:22:02.832Z,13.87
2023-05-05T00:27:06.056Z,13.75
2023-05-05T00:32:07.877Z,13.80
2023-05-05T00:37:09.493Z,13.63
2023-05-05T00:42:15.424Z,13.69
2023-05-05T00:47:17.328Z,13.70
2023-05-05T00:52:19.198Z,13.71
2023-05-05T00:57:23.498Z,13.75
2023-05-05T01:02:26.402Z,13.69
2023-05-05T01:07:37.308Z,13.63
2023-05-05T01:12:49.482Z,13.64
2023-05-05T01:17:58.234Z,13.52
2023-05-05T01:23:05.137Z,13.48
2023-05-05T01:28:31.137Z,13.54
2023-05-05T01:33:40.817Z,13.61
2023-05-05T01:38:50.239Z,13.64
2023-05-05T01:43:54.982Z,13.45
2023-05-05T01:49:01.881Z,13.49
2023-05-05T01:54:05.953Z,13.52
2023-05-05T01:59:09.344Z,13.54
2023-05-05T02:04:14.120Z,13.42
2023-05-05T02:09:16.668Z,13.46
2023-05-05T02:14:20.613Z,13.54
2023-05-05T02:19:29.427Z,13.48
2023-05-05T02:24:31.367Z,13.56
2023-05-05T02:29:37.058Z,13.44
2023-05-05T02:34:42.895Z,13.49
2023-05-05T02:39:51.568Z,13.30
2023-05-05T02:44:55.262Z,13.35
2023-05-05T02:49:58.665Z,13.33
2023-05-05T02:55:01.328Z,13.33
2023-05-05T03:00:08.397Z,13.26
2023-05-05T03:05:16.920Z,13.15
2023-05-05T03:10:21.709Z,13.17
2023-05-05T03:15:28.156Z,13.00
2023-05-05T03:20:32.161Z,13.00
2023-05-05T03:25:41.885Z,13.08
2023-05-05T03:30:43.853Z,13.14
2023-05-05T03:35:46.948Z,13.03
2023-05-05T03:40:48.608Z,13.00
2023-05-05T03:45:50.295Z,12.97
2023-05-05T03:50:54.008Z,12.95
2023-05-05T03:55:55.604Z,12.82
2023-05-05T04:00:57.345Z,12.72
2023-05-05T04:06:00.338Z,12.60
2023-05-05T04:11:01.988Z,12.73
2023-05-05T04:16:04.000Z,12.83
2023-05-05T04:21:07.073Z,12.73
2023-05-05T04:26:08.749Z,12.83
2023-05-05T04:31:10.488Z,12.80
2023-05-05T04:36:13.591Z,12.71
2023-05-05T04:41:15.202Z,12.79
2023-05-05T04:46:16.895Z,12.75
2023-05-05T04:51:19.892Z,12.83
2023-05-05T04:56:21.672Z,12.93
2023-05-05T05:01:23.341Z,13.01
2023-05-05T05:06:26.402Z,13.04
2023-05-05T05:11:28.069Z,13.20
2023-05-05T05:16:29.899Z,13.36
2023-05-05T05:21:33.099Z,13.44
2023-05-05T05:26:34.809Z,13.49
2023-05-05T05:31:36.486Z,13.59
2023-05-05T05:36:39.665Z,13.72
2023-05-05T05:41:44.429Z,13.87
2023-05-05T05:46:46.081Z,13.84
2023-05-05T05:51:49.034Z,13.81
2023-05-05T05:56:50.697Z,14.50
2023-05-05T06:01:52.328Z,15.38
2023-05-05T06:06:55.841Z,15.52
2023-05-05T06:17:33.478Z,15.46
2023-05-05T06:22:36.528Z,15.38
2023-05-05T06:27:41.215Z,15.50
2023-05-05T06:32:42.911Z,15.65
2023-05-05T06:37:45.944Z,15.92
2023-05-05T06:42:47.581Z,15.94
2023-05-05T06:47:49.306Z,16.05
2023-05-05T06:52:52.335Z,16.40
2023-05-05T06:57:54.010Z,16.83
2023-05-05T07:02:55.684Z,17.15
2023-05-05T07:07:59.248Z,17.67
2023-05-05T07:13:01.041Z,17.90
2023-05-05T07:18:02.989Z,18.05
2023-05-05T07:23:06.125Z,18.20
2023-05-05T07:28:07.942Z,18.13
2023-05-05T07:33:09.919Z,18.80
2023-05-05T07:38:13.024Z,18.83
2023-05-05T07:43:14.736Z,18.86
2023-05-05T07:48:16.393Z,19.28
2023-05-05T07:53:19.474Z,19.48
2023-05-05T07:58:21.198Z,19.47
2023-05-05T08:03:22.996Z,19.79
2023-05-05T08:08:26.053Z,19.64
2023-05-05T08:13:27.813Z,19.29
2023-05-05T08:18:29.499Z,18.95
2023-05-05T08:23:32.719Z,19.26
2023-05-05T08:28:34.706Z,18.99
2023-05-05T08:33:36.368Z,18.85
2023-05-05T08:38:39.493Z,17.60
2023-05-05T08:43:44.208Z,17.84
2023-05-05T08:48:48.455Z,17.35
2023-05-05T08:53:58.042Z,17.45
2023-05-05T08:59:00.418Z,17.14
2023-05-05T09:04:03.967Z,17.23
2023-05-05T09:09:08.115Z,17.40
2023-05-05T09:14:10.051Z,17.87
2023-05-05T09:19:11.810Z,17.69
2023-05-05T09:24:14.944Z,18.39
2023-05-05T09:29:20.078Z,17.95
2023-05-05T09:34:21.826Z,18.22
2023-05-05T09:39:24.846Z,18.16
2023-05-05T09:44:36.825Z,17.66
2023-05-05T09:49:39.153Z,18.10
2023-05-05T09:54:42.622Z,18.30
2023-05-05T09:59:54.870Z,17.87
2023-05-05T10:05:05.280Z,17.95
2023-05-05T10:10:10.817Z,17.85
2023-05-05T10:15:15.058Z,17.86
2023-05-05T10:20:18.667Z,17.90
2023-05-05T10:25:28.779Z,18.00
2023-05-05T10:30:31.384Z,18.48
2023-05-05T10:35:36.804Z,18.49
2023-05-05T10:40:44.023Z,18.40
2023-05-05T10:45:46.047Z,18.45
2023-05-05T10:50:51.701Z,18.84
2023-05-05T10:56:12.862Z,18.61
2023-05-05T11:01:28.898Z,18.01
2023-05-05T11:06:30.812Z,18.28
2023-05-05T11:12:03.834Z,18.12
2023-05-05T11:17:05.527Z,18.25
2023-05-05T11:22:07.174Z,18.57
2023-05-05T11:27:10.246Z,18.53
2023-05-05T11:32:12.585Z,18.60
2023-05-05T11:37:15.317Z,18.32
2023-05-05T11:42:25.929Z,18.33
2023-05-05T11:47:29.529Z,18.21
2023-05-05T11:52:31.164Z,18.70
2023-05-05T11:57:34.312Z,19.01
2023-05-05T12:02:36.214Z,18.48
2023-05-05T12:07:38.107Z,18.76
2023-05-05T12:12:41.103Z,18.51
2023-05-05T12:17:43.291Z,18.73
2023-05-05T12:22:45.010Z,18.46
2023-05-05T12:27:53.221Z,18.61
2023-05-05T12:33:01.442Z,18.72
2023-05-05T12:38:03.222Z,18.53
2023-05-05T12:43:06.348Z,18.29
2023-05-05T12:48:23.523Z,18.23
2023-05-05T12:53:25.842Z,18.07
2023-05-05T12:58:28.917Z,18.09
2023-05-05T13:03:30.646Z,18.09
2023-05-05T13:08:42.501Z,17.90
2023-05-05T13:13:45.491Z,17.83
2023-05-05T13:18:47.905Z,17.71
2023-05-05T13:23:49.553Z,17.93
2023-05-05T13:28:53.348Z,17.72
2023-05-05T13:33:54.953Z,17.84
2023-05-05T13:38:56.671Z,17.70
2023-05-05T13:43:59.781Z,17.85
2023-05-05T13:49:01.659Z,17.62
2023-05-05T13:54:03.615Z,17.71
2023-05-05T13:59:06.719Z,17.83
2023-05-05T14:04:08.618Z,17.58
2023-05-05T14:09:10.483Z,17.34
2023-05-05T14:14:13.456Z,17.33
2023-05-05T14:19:15.101Z,17.45
2023-05-05T14:24:16.822Z,17.28
2023-05-05T14:29:19.902Z,17.41
2023-05-05T14:34:21.830Z,17.29
2023-05-05T14:39:23.543Z,17.22
2023-05-05T14:44:26.519Z,17.13
2023-05-05T14:49:28.207Z,17.02
2023-05-05T14:54:29.934Z,17.06
2023-05-05T14:59:33.115Z,17.12
2023-05-05T15:04:34.928Z,17.04
2023-05-05T15:09:36.593Z,16.95
2023-05-05T15:14:39.577Z,16.89
2023-05-05T15:19:41.745Z,16.93
2023-05-05T15:24:43.432Z,16.93
2023-05-05T15:29:46.385Z,16.94
2023-05-05T15:34:50.216Z,16.93
2023-05-05T15:39:52.125Z,17.07
2023-05-05T15:44:55.123Z,17.30
2023-05-05T15:49:56.821Z,17.34
2023-05-05T15:54:58.498Z,17.40
2023-05-05T16:00:01.652Z,17.17
2023-05-05T16:05:03.455Z,17.40
2023-05-05T16:10:05.917Z,17.22
2023-05-05T16:15:10.597Z,17.07
2023-05-05T16:20:12.884Z,17.05
2023-05-05T16:25:14.482Z,16.80
2023-05-05T16:30:17.733Z,16.86
2023-05-05T16:35:19.706Z,16.99
2023-05-05T16:40:21.371Z,17.01
2023-05-05T16:45:24.448Z,17.04
2023-05-05T16:50:26.115Z,16.99
2023-05-05T16:55:27.759Z,16.96
2023-05-05T17:00:30.714Z,16.87
2023-05-05T17:05:32.375Z,16.91
2023-05-05T17:10:34.116Z,16.85
2023-05-05T17:15:37.811Z,16.91
2023-05-05T17:20:39.448Z,16.69
2023-05-05T17:25:41.085Z,16.60
2023-05-05T17:30:44.315Z,16.62
2023-05-05T17:35:46.011Z,16.58
2023-05-05T17:40:47.925Z,16.48
2023-05-05T17:45:51.027Z,16.47
2023-05-05T17:50:52.665Z,16.45
2023-05-05T17:55:54.298Z,16.38
2023-05-05T18:00:57.645Z,16.34
2023-05-05T18:05:59.307Z,16.32
2023-05-05T18:11:00.990Z,16.33
2023-05-05T18:16:05.718Z,16.34
2023-05-05T18:21:07.503Z,16.31
2023-05-05T18:26:09.213Z,16.32
2023-05-05T18:31:12.248Z,16.30
2023-05-05T18:36:13.979Z,16.34
2023-05-05T18:41:15.594Z,16.34
2023-05-05T18:46:18.589Z,16.36
2023-05-05T18:51:20.257Z,16.32
2023-05-05T18:56:21.865Z,16.34
2023-05-05T19:01:24.976Z,16.32
2023-05-05T19:06:26.655Z,16.30
2023-05-05T19:11:28.283Z,16.26
2023-05-05T19:16:31.426Z,16.23
2023-05-05T19:21:33.114Z,16.18
2023-05-05T19:26:34.743Z,16.15
2023-05-05T19:31:38.005Z,16.10
2023-05-05T19:36:39.683Z,16.11
2023-05-05T19:41:41.331Z,16.06
2023-05-05T19:46:44.585Z,16.07
2023-05-05T19:51:46.327Z,16.07
2023-05-05T19:56:47.976Z,16.05
2023-05-05T20:01:51.167Z,16.02
2023-05-05T20:06:52.893Z,15.96
2023-05-05T20:11:55.131Z,15.92
2023-05-05T20:16:58.074Z,15.87
2023-05-05T20:21:59.975Z,15.85
2023-05-05T20:27:01.620Z,15.84
2023-05-05T20:32:05.728Z,15.80
2023-05-05T20:37:07.536Z,15.81
2023-05-05T20:42:09.534Z,15.79
2023-05-05T20:47:12.582Z,15.80
2023-05-05T20:52:14.242Z,15.79
2023-05-05T20:57:15.859Z,15.79
2023-05-05T21:02:18.881Z,15.79
2023-05-05T21:07:20.502Z,15.73
2023-05-05T21:12:22.298Z,15.66
2023-05-05T21:17:25.573Z,15.60
2023-05-05T21:22:27.494Z,15.52
2023-05-05T21:27:29.101Z,15.44
2023-05-05T21:32:32.130Z,15.40
2023-05-05T21:37:33.882Z,15.26
2023-05-05T21:42:35.543Z,15.22
2023-05-05T21:47:38.637Z,15.14
2023-05-05T21:52:40.578Z,15.03
2023-05-05T21:57:42.297Z,15.00
2023-05-05T22:02:45.911Z,14.89
2023-05-05T22:07:47.612Z,14.92
2023-05-05T22:12:49.313Z,14.84
2023-05-05T22:17:52.430Z,14.82
2023-05-05T22:22:54.085Z,14.78
2023-05-05T22:27:56.169Z,14.77
2023-05-05T22:32:59.183Z,14.71
2023-05-05T22:38:00.895Z,14.64
2023-05-05T22:43:02.639Z,14.67
2023-05-05T22:48:06.041Z,14.68
2023-05-05T22:53:07.719Z,14.68
2023-05-05T22:58:09.447Z,14.65
2023-05-05T23:03:12.454Z,14.53
2023-05-05T23:08:14.118Z,14.65
2023-05-05T23:13:15.910Z,14.51
2023-05-05T23:18:19.171Z,14.51
2023-05-05T23:23:20.829Z,14.55
2023-05-05T23:28:23.647Z,14.51
2023-05-05T23:33:26.660Z,14.48
2023-05-05T23:38:28.346Z,14.51
2023-05-05T23:43:30.095Z,14.45
2023-05-05T23:48:33.138Z,14.42
2023-05-05T23:53:34.950Z,14.36
2023-05-05T23:58:36.611Z,14.30
